Time;durP1;ratioP1;P1;durP2;ratioP2;P2;SDS_P1;SDS_P2;PMS_P1;PMS_P2;Temp;Humidity;BMP_temperature;BMP_pressure;BME280_temperature;BME280_humidity;BME280_pressure;Samples;Min_cycle;Max_cycle;Signal;HPM_P1;HPM_P2
2021/11/09 00:00:23;;;;;;;;;;;;;;;;;;5041696;28;1144;-51
2021/11/09 00:02:48;;;;;;;;;;;;;;;;;;5035194;28;1185;-50
2021/11/09 00:05:16;;;;;;;;;;;;;;;;;;5016506;28;1617;-50
2021/11/09 00:07:51;;;;;;;;;;;;;;;;;;5027630;28;1231;-51
2021/11/09 00:10:16;;;;;;;;;;;;;;;;;;5030666;28;864;-50
2021/11/09 00:12:42;;;;;;;;;;;;;;;;;;5028431;28;1938;-51
2021/11/09 00:15:12;;;;;;;;;;;;;;;;;;5010942;28;1220;-52
2021/11/09 00:17:37;;;;;;;;;;;;;;;;;;5026809;28;1196;-51
2021/11/09 00:20:06;;;;;;;;;;;;;;;;;;5028546;28;1624;-51
2021/11/09 00:22:31;;;;;;;;;;;;;;;;;;5027615;28;1687;-51
2021/11/09 00:24:56;;;;;;;;;;;;;;;;;;5028304;28;1226;-52
2021/11/09 00:27:21;;;;;;;;;;;;;;;;;;5037241;28;1153;-51
2021/11/09 00:29:46;;;;;;;;;;;;;;;;;;5020547;28;1597;-51
2021/11/09 00:32:12;;;;;;;;;;;;;;;;;;5010990;28;1986;-50
2021/11/09 00:34:37;;;;;;;;;;;;;;;;;;5010323;28;1585;-50
2021/11/09 00:37:03;;;;;;;;;;;;;;;;;;5021423;28;1209;-50
2021/11/09 00:39:28;;;;;;;;;;;;;;;;;;5049505;28;865;-51
2021/11/09 00:41:53;;;;;;;;;;;;;;;;;;5049527;28;1010;-56
2021/11/09 00:44:18;;;;;;;;;;;;;;;;;;5032267;28;1616;-50
2021/11/09 00:46:43;;;;;;;;;;;;;;;;;;5014053;28;1196;-51
2021/11/09 00:49:09;;;;;;;;;;;;;;;;;;5026795;28;1528;-51
2021/11/09 00:51:34;;;;;;;;;;;;;;;;;;5027794;28;1906;-53
2021/11/09 00:53:59;;;;;;;;;;;;;;;;;;5027748;28;1237;-51
2021/11/09 00:56:24;;;;;;;;;;;;;;;;;;5028109;28;1109;-49
2021/11/09 00:58:50;;;;;;;;;;;;;;;;;;5027470;28;1434;-50
2021/11/09 01:01:15;;;;;;;;;;;;;;;;;;5009450;28;901;-49
2021/11/09 01:06:08;;;;;;;;;;;;;;;;;;5084336;28;1335;-55
2021/11/09 01:08:33;;;;;;;;;;;;;;;;;;5087255;28;1521;-57
2021/11/09 01:10:58;;;;;;;;;;;;;;;;;;5082939;28;1385;-55
2021/11/09 01:13:24;;;;;;;;;;;;;;;;;;5087574;28;1905;-56
2021/11/09 01:15:50;;;;;;;;;;;;;;;;;;5052963;28;1647;-56
2021/11/09 01:18:19;;;;;;;;;;;;;;;;;;5063954;28;1486;-57
2021/11/09 01:20:44;;;;;;;;;;;;;;;;;;5048935;28;1510;-56
2021/11/09 01:23:09;;;;;;;;;;;;;;;;;;5049199;28;983;-57
2021/11/09 01:25:35;;;;;;;;;;;;;;;;;;5047724;28;1405;-57
2021/11/09 01:28:00;;;;;;;;;;;;;;;;;;5058534;28;1508;-57
2021/11/09 01:30:25;;;;;;;;;;;;;;;;;;5049258;28;983;-56
2021/11/09 01:32:51;;;;;;;;;;;;;;;;;;5048621;28;1898;-58
2021/11/09 01:35:16;;;;;;;;;;;;;;;;;;5051809;28;1601;-57
2021/11/09 01:37:42;;;;;;;;;;;;;;;;;;5065227;28;1085;-55
2021/11/09 01:40:07;;;;;;;;;;;;;;;;;;5072262;28;758;-56
2021/11/09 01:42:33;;;;;;;;;;;;;;;;;;5072549;28;843;-55
2021/11/09 01:44:58;;;;;;;;;;;;;;;;;;5058799;28;1671;-54
2021/11/09 01:47:23;;;;;;;;;;;;;;;;;;5059997;28;1378;-56
2021/11/09 01:49:49;;;;;;;;;;;;;;;;;;5060422;28;2107;-55
2021/11/09 01:52:14;;;;;;;;;;;;;;;;;;5052348;28;1957;-55
2021/11/09 01:54:39;;;;;;;;;;;;;;;;;;5051602;28;1228;-54
2021/11/09 01:57:05;;;;;;;;;;;;;;;;;;5056486;28;1196;-54
2021/11/09 01:59:32;;;;;;;;;;;;;;;;;;5060943;28;1672;-55
2021/11/09 02:01:57;;;;;;;;;;;;;;;;;;5048884;28;1537;-54
2021/11/09 02:04:22;;;;;;;;;;;;;;;;;;5049599;28;1672;-55
2021/11/09 02:06:47;;;;;;;;;;;;;;;;;;5056470;28;995;-54
2021/11/09 02:09:13;;;;;;;;;;;;;;;;;;5070135;28;1540;-55
2021/11/09 02:11:38;;;;;;;;;;;;;;;;;;5068681;28;1905;-55
2021/11/09 02:14:04;;;;;;;;;;;;;;;;;;5052275;28;1287;-55
2021/11/09 02:16:29;;;;;;;;;;;;;;;;;;5052846;28;1113;-55
2021/11/09 02:18:54;;;;;;;;;;;;;;;;;;5068233;28;1588;-55
2021/11/09 02:21:20;;;;;;;;;;;;;;;;;;5052095;28;1007;-56
2021/11/09 02:23:45;;;;;;;;;;;;;;;;;;5051260;28;1296;-55
2021/11/09 02:26:11;;;;;;;;;;;;;;;;;;5050936;28;865;-56
2021/11/09 02:28:36;;;;;;;;;;;;;;;;;;5058397;28;1540;-55
2021/11/09 02:31:02;;;;;;;;;;;;;;;;;;5052050;28;1036;-55
2021/11/09 02:33:27;;;;;;;;;;;;;;;;;;5051044;28;1914;-55
2021/11/09 02:35:53;;;;;;;;;;;;;;;;;;5051054;28;1310;-54
2021/11/09 02:38:18;;;;;;;;;;;;;;;;;;5068142;28;1560;-55
2021/11/09 02:40:43;;;;;;;;;;;;;;;;;;5071906;28;999;-55
2021/11/09 02:43:09;;;;;;;;;;;;;;;;;;5064469;28;1593;-55
2021/11/09 02:46:09;;;;;;;;;;;;;;;;;;5050080;28;1311;-55
2021/11/09 02:48:38;;;;;;;;;;;;;;;;;;5070236;28;1476;-55
2021/11/09 02:51:13;;;;;;;;;;;;;;;;;;5051374;28;868;-55
2021/11/09 02:53:45;;;;;;;;;;;;;;;;;;5051302;28;1902;-54
2021/11/09 03:08:35;;;;;;;;;;;;;;;;;;5070754;28;1183;-55
2021/11/09 03:11:01;;;;;;;;;;;;;;;;;;5070985;28;844;-55
2021/11/09 03:13:26;;;;;;;;;;;;;;;;;;5063110;28;1977;-55
2021/11/09 03:15:52;;;;;;;;;;;;;;;;;;5050022;28;1314;-54
2021/11/09 03:18:22;;;;;;;;;;;;;;;;;;5069721;28;1228;-55
2021/11/09 03:45:11;;;;;;;;;;;;;;;;;;5053358;28;1616;-55
2021/11/09 03:47:42;;;;;;;;;;;;;;;;;;5044524;28;999;-54
2021/11/09 03:50:08;;;;;;;;;;;;;;;;;;5056412;28;1529;-56
2021/11/09 03:52:41;;;;;;;;;;;;;;;;;;5049960;28;1906;-54
2021/11/09 03:55:07;;;;;;;;;;;;;;;;;;5049381;28;1270;-55
2021/11/09 03:58:05;;;;;;;;;;;;;;;;;;5056326;28;1456;-56
2021/11/09 04:01:21;;;;;;;;;;;;;;;;;;5049669;28;1599;-54
2021/11/09 04:05:40;;;;;;;;;;;;;;;;;;5049049;28;1659;-54
2021/11/09 04:08:17;;;;;;;;;;;;;;;;;;5065778;28;1581;-54
2021/11/09 04:10:57;;;;;;;;;;;;;;;;;;5070320;28;856;-54
2021/11/09 04:15:56;;;;;;;;;;;;;;;;;;5048821;28;1172;-54
2021/11/09 04:18:38;;;;;;;;;;;;;;;;;;5067896;28;1176;-55
2021/11/09 04:21:51;;;;;;;;;;;;;;;;;;5049906;28;809;-55
2021/11/09 04:27:00;;;;;;;;;;;;;;;;;;5053667;28;1490;-55
2021/11/09 05:11:32;;;;;;;;;;;;;;;;;;5069216;28;1973;-55
2021/11/09 05:13:58;;;;;;;;;;;;;;;;;;5059256;28;1675;-56
2021/11/09 05:16:23;;;;;;;;;;;;;;;;;;5050850;28;1133;-54
2021/11/09 05:18:48;;;;;;;;;;;;;;;;;;5065655;28;1798;-54
2021/11/09 05:21:13;;;;;;;;;;;;;;;;;;5067347;28;1128;-55
2021/11/09 05:23:38;;;;;;;;;;;;;;;;;;5068943;28;1278;-55
2021/11/09 05:26:04;;;;;;;;;;;;;;;;;;5068504;28;1136;-54
2021/11/09 05:28:29;;;;;;;;;;;;;;;;;;5062452;28;1493;-54
2021/11/09 05:30:54;;;;;;;;;;;;;;;;;;5048732;28;920;-55
2021/11/09 05:33:20;;;;;;;;;;;;;;;;;;5048425;28;1973;-55
2021/11/09 05:35:46;;;;;;;;;;;;;;;;;;5047864;28;1577;-56
2021/11/09 05:38:13;;;;;;;;;;;;;;;;;;5065526;28;1165;-55
2021/11/09 05:40:41;;;;;;;;;;;;;;;;;;5068983;28;820;-55
2021/11/09 05:43:07;;;;;;;;;;;;;;;;;;5068307;28;892;-54
2021/11/09 05:45:32;;;;;;;;;;;;;;;;;;5047923;28;1647;-55
2021/11/09 05:47:57;;;;;;;;;;;;;;;;;;4999572;28;1196;-56
2021/11/09 05:50:23;;;;;;;;;;;;;;;;;;5052599;28;1493;-54
2021/11/09 05:52:48;;;;;;;;;;;;;;;;;;5048375;28;1926;-55
2021/11/09 05:55:13;;;;;;;;;;;;;;;;;;5047851;28;1312;-54
2021/11/09 05:57:38;;;;;;;;;;;;;;;;;;5059878;28;1517;-54
2021/11/09 06:00:04;;;;;;;;;;;;;;;;;;5068800;28;920;-54
2021/11/09 06:02:29;;;;;;;;;;;;;;;;;;5055781;28;1552;-55
2021/11/09 06:04:55;;;;;;;;;;;;;;;;;;5063867;28;1496;-55
2021/11/09 06:07:20;;;;;;;;;;;;;;;;;;5065827;28;1132;-54
2021/11/09 06:09:45;;;;;;;;;;;;;;;;;;5048158;28;821;-55
2021/11/09 06:12:10;;;;;;;;;;;;;;;;;;5048430;28;1969;-55
2021/11/09 06:14:35;;;;;;;;;;;;;;;;;;5047469;28;1220;-56
2021/11/09 06:17:01;;;;;;;;;;;;;;;;;;5052515;28;1137;-55
2021/11/09 06:19:26;;;;;;;;;;;;;;;;;;5061093;28;1576;-55
2021/11/09 06:21:52;;;;;;;;;;;;;;;;;;5059823;28;1492;-55
2021/11/09 06:24:17;;;;;;;;;;;;;;;;;;5070857;28;1290;-55
2021/11/09 06:26:42;;;;;;;;;;;;;;;;;;5067613;28;1105;-55
2021/11/09 06:29:07;;;;;;;;;;;;;;;;;;5067353;28;1635;-54
2021/11/09 06:31:32;;;;;;;;;;;;;;;;;;5061637;28;2007;-55
2021/11/09 06:33:58;;;;;;;;;;;;;;;;;;5066560;28;1504;-54
2021/11/09 06:36:23;;;;;;;;;;;;;;;;;;5051942;28;1505;-56
2021/11/09 06:38:48;;;;;;;;;;;;;;;;;;5070398;28;1145;-55
2021/11/09 06:41:13;;;;;;;;;;;;;;;;;;5065768;28;1405;-55
2021/11/09 06:43:38;;;;;;;;;;;;;;;;;;5071083;28;1353;-54
2021/11/09 06:46:04;;;;;;;;;;;;;;;;;;5070648;28;809;-55
2021/11/09 06:48:30;;;;;;;;;;;;;;;;;;5061528;28;1434;-53
2021/11/09 06:50:55;;;;;;;;;;;;;;;;;;5069116;28;1038;-53
2021/11/09 06:53:20;;;;;;;;;;;;;;;;;;5071050;28;1902;-55
2021/11/09 06:55:45;;;;;;;;;;;;;;;;;;5070084;28;1279;-54
2021/11/09 06:58:11;;;;;;;;;;;;;;;;;;5060506;28;1469;-54
2021/11/09 07:00:36;;;;;;;;;;;;;;;;;;5051377;28;1062;-55
2021/11/09 07:03:01;;;;;;;;;;;;;;;;;;5051679;28;788;-55
2021/11/09 07:05:26;;;;;;;;;;;;;;;;;;5105525;23;1601;-94
2021/11/09 07:07:52;;;;;;;;;;;;;;;;;;5134137;28;1236;-93
2021/11/09 07:10:17;;;;;;;;;;;;;;;;;;5134790;28;1055;-93
2021/11/09 07:12:43;;;;;;;;;;;;;;;;;;5133793;28;1949;-94
2021/11/09 07:15:09;;;;;;;;;;;;;;;;;;5132501;27;1327;-95
2021/11/09 07:17:34;;;;;;;;;;;;;;;;;;5133091;28;1160;-93
2021/11/09 07:20:00;;;;;;;;;;;;;;;;;;5128670;28;1379;-93
2021/11/09 07:22:25;;;;;;;;;;;;;;;;;;5131191;28;1031;-93
2021/11/09 07:24:50;;;;;;;;;;;;;;;;;;5131670;28;1337;-93
2021/11/09 07:27:16;;;;;;;;;;;;;;;;;;5131548;28;1197;-94
2021/11/09 07:29:45;;;;;;;;;;;;;;;;;;5132099;28;1114;-94
2021/11/09 07:32:11;;;;;;;;;;;;;;;;;;5130671;28;1910;-94
2021/11/09 07:34:37;;;;;;;;;;;;;;;;;;5131049;28;1466;-94
2021/11/09 07:37:03;;;;;;;;;;;;;;;;;;5132797;28;1089;-94
2021/11/09 07:39:28;;;;;;;;;;;;;;;;;;5133003;28;1153;-94
2021/11/09 07:41:53;;;;;;;;;;;;;;;;;;5132736;28;1289;-94
2021/11/09 07:44:18;;;;;;;;;;;;;;;;;;5131763;28;1326;-94
2021/11/09 07:46:44;;;;;;;;;;;;;;;;;;5133096;28;1222;-93
2021/11/09 07:49:09;;;;;;;;;;;;;;;;;;5133286;28;1518;-94
2021/11/09 07:51:35;;;;;;;;;;;;;;;;;;5133982;28;1938;-94
2021/11/09 07:54:01;;;;;;;;;;;;;;;;;;5131450;28;1062;-95
2021/11/09 07:56:31;;;;;;;;;;;;;;;;;;5134576;28;1229;-95
2021/11/09 07:59:10;;;;;;;;;;;;;;;;;;5136526;28;1066;-94
2021/11/09 08:09:14;;;;;;;;;;;;;;;;;;5134171;28;1019;-95
2021/11/09 08:11:44;;;;;;;;;;;;;;;;;;5134221;28;1920;-95
2021/11/09 08:14:09;;;;;;;;;;;;;;;;;;5133204;28;1413;-96
2021/11/09 08:16:34;;;;;;;;;;;;;;;;;;5133426;28;1195;-95
2021/11/09 08:19:00;;;;;;;;;;;;;;;;;;5129802;28;1320;-95
2021/11/09 08:21:25;;;;;;;;;;;;;;;;;;5133240;28;1063;-94
2021/11/09 08:23:50;;;;;;;;;;;;;;;;;;5132485;28;1111;-94
2021/11/09 08:26:16;;;;;;;;;;;;;;;;;;5133365;28;1269;-95
2021/11/09 08:28:41;;;;;;;;;;;;;;;;;;5132083;28;1330;-94
2021/11/09 08:31:08;;;;;;;;;;;;;;;;;;5135114;28;1205;-94
2021/11/09 08:33:34;;;;;;;;;;;;;;;;;;5132540;28;1940;-96
2021/11/09 08:36:04;;;;;;;;;;;;;;;;;;5134578;28;1424;-96
2021/11/09 08:38:29;;;;;;;;;;;;;;;;;;5131774;28;981;-95
2021/11/09 08:40:55;;;;;;;;;;;;;;;;;;5134793;28;1055;-95
2021/11/09 08:43:24;;;;;;;;;;;;;;;;;;5131667;28;1362;-95
2021/11/09 08:48:16;;;;;;;;;;;;;;;;;;5128079;28;1174;-93
2021/11/09 08:50:42;;;;;;;;;;;;;;;;;;5124580;28;1373;-94
2021/11/09 08:53:12;;;;;;;;;;;;;;;;;;5122837;28;1967;-94
2021/11/09 09:06:08;;;;;;;;;;;;;;;;;;5124505;28;1228;-92
2021/11/09 09:08:33;;;;;;;;;;;;;;;;;;5111439;28;1083;-93
2021/11/09 09:10:59;;;;;;;;;;;;;;;;;;5108476;28;1521;-94
2021/11/09 09:13:24;;;;;;;;;;;;;;;;;;5110842;28;1965;-95
2021/11/09 09:15:49;;;;;;;;;;;;;;;;;;5111219;28;1254;-94
2021/11/09 09:18:17;;;;;;;;;;;;;;;;;;5114190;28;1161;-95
2021/11/09 09:20:46;;;;;;;;;;;;;;;;;;5104047;28;1613;-89
2021/11/09 09:23:20;;;;;;;;;;;;;;;;;;5108941;28;1119;-86
2021/11/09 09:25:52;;;;;;;;;;;;;;;;;;5113595;22;3740;-46
2021/11/09 09:31:17;;;;;;;;;;;;;;;;;;5076763;28;1499;-46
2021/11/09 09:55:45;;;;;;;;;;;;;;;;;;5057680;28;1516;-45
2021/11/09 09:58:11;;;;;;;;;;;;;;;;;;5059449;28;1392;-47
2021/11/09 10:00:37;;;;;;;;;;;;;;;;;;5061176;28;1183;-46
2021/11/09 10:03:02;;;;;;;;;;;;;;;;;;5059698;28;1140;-48
2021/11/09 10:05:29;;;;;;;;;;;;;;;;;;5059546;28;1432;-46
2021/11/09 10:07:55;;;;;;;;;;;;;;;;;;5075490;28;1267;-47
2021/11/09 10:10:24;;;;;;;;;;;;;;;;;;5060778;28;1014;-47
2021/11/09 10:13:01;;;;;;;;;;;;;;;;;;5060303;28;1981;-47
2021/11/09 10:15:27;;;;;;;;;;;;;;;;;;5062008;28;1261;-45
2021/11/09 10:17:53;;;;;;;;;;;;;;;;;;5060593;28;1109;-47
2021/11/09 10:20:23;;;;;;;;;;;;;;;;;;5061881;28;1421;-47
2021/11/09 10:23:09;;;;;;;;;;;;;;;;;;5061165;28;1112;-46
2021/11/09 10:25:34;;;;;;;;;;;;;;;;;;5060890;28;1386;-46
2021/11/09 10:28:04;;;;;;;;;;;;;;;;;;5060895;28;1578;-48
2021/11/09 10:30:31;;;;;;;;;;;;;;;;;;5060878;28;1424;-47
2021/11/09 10:32:56;;;;;;;;;;;;;;;;;;5060172;28;1967;-46
2021/11/09 10:35:22;;;;;;;;;;;;;;;;;;5060233;28;1480;-47
2021/11/09 10:37:48;;;;;;;;;;;;;;;;;;5060584;28;1254;-46
2021/11/09 10:40:22;;;;;;;;;;;;;;;;;;5060138;28;1210;-46
2021/11/09 10:42:49;;;;;;;;;;;;;;;;;;5059974;28;1374;-46
2021/11/09 10:45:15;;;;;;;;;;;;;;;;;;5060206;28;1219;-46
2021/11/09 10:47:41;;;;;;;;;;;;;;;;;;5060176;28;1183;-47
2021/11/09 10:50:18;;;;;;;;;;;;;;;;;;5060317;28;1408;-47
2021/11/09 10:52:43;;;;;;;;;;;;;;;;;;5062112;28;2284;-48
2021/11/09 10:58:29;;;;;;;;;;;;;;;;;;5059909;28;1282;-47
2021/11/09 11:03:22;;;;;;;;;;;;;;;;;;5060489;28;956;-47
2021/11/09 11:05:48;;;;;;;;;;;;;;;;;;5060439;28;1642;-47
2021/11/09 11:08:14;;;;;;;;;;;;;;;;;;5060401;28;1301;-47
2021/11/09 11:10:39;;;;;;;;;;;;;;;;;;5060094;28;1053;-47
2021/11/09 11:13:17;;;;;;;;;;;;;;;;;;5060968;28;1960;-47
2021/11/09 11:16:01;;;;;;;;;;;;;;;;;;5061184;28;1543;-47
2021/11/09 11:18:44;;;;;;;;;;;;;;;;;;5061683;28;1363;-46
2021/11/09 11:21:10;;;;;;;;;;;;;;;;;;5059568;28;1072;-47
2021/11/09 11:23:36;;;;;;;;;;;;;;;;;;5059677;28;1100;-47
2021/11/09 11:26:02;;;;;;;;;;;;;;;;;;5059012;28;1479;-46
2021/11/09 11:28:28;;;;;;;;;;;;;;;;;;5059834;28;1003;-47
2021/11/09 11:30:54;;;;;;;;;;;;;;;;;;5060171;28;1103;-46
2021/11/09 11:33:19;;;;;;;;;;;;;;;;;;5059898;28;1906;-46
2021/11/09 11:35:45;;;;;;;;;;;;;;;;;;5059752;28;1441;-46
2021/11/09 11:38:10;;;;;;;;;;;;;;;;;;5053484;28;1100;-47
2021/11/09 11:40:36;;;;;;;;;;;;;;;;;;5050806;28;944;-46
2021/11/09 11:43:01;;;;;;;;;;;;;;;;;;5065745;28;1692;-47
2021/11/09 11:45:26;;;;;;;;;;;;;;;;;;5049575;28;1283;-47
2021/11/09 11:48:05;;;;;;;;;;;;;;;;;;5059529;28;1297;-45
2021/11/09 11:50:42;;;;;;;;;;;;;;;;;;5050523;28;1675;-46
2021/11/09 11:53:08;;;;;;;;;;;;;;;;;;5050425;28;1894;-47
2021/11/09 11:55:33;;;;;;;;;;;;;;;;;;5049614;28;1296;-47
2021/11/09 11:58:01;;;;;;;;;;;;;;;;;;5054412;28;1392;-46
2021/11/09 12:00:28;;;;;;;;;;;;;;;;;;5050214;28;995;-46
2021/11/09 12:02:53;;;;;;;;;;;;;;;;;;5050636;28;836;-47
2021/11/09 12:05:34;;;;;;;;;;;;;;;;;;5049317;28;1556;-46
2021/11/09 12:07:59;;;;;;;;;;;;;;;;;;5056319;28;1160;-47
2021/11/09 12:10:33;;;;;;;;;;;;;;;;;;5049952;28;959;-47
2021/11/09 12:13:00;;;;;;;;;;;;;;;;;;5065005;28;1902;-47
2021/11/09 12:15:40;;;;;;;;;;;;;;;;;;5049208;28;1283;-47
2021/11/09 12:18:21;;;;;;;;;;;;;;;;;;5065943;28;1058;-47
2021/11/09 12:20:47;;;;;;;;;;;;;;;;;;5066099;28;1619;-47
2021/11/09 12:23:18;;;;;;;;;;;;;;;;;;5049161;28;857;-47
2021/11/09 12:25:43;;;;;;;;;;;;;;;;;;5048962;28;1310;-46
2021/11/09 12:28:10;;;;;;;;;;;;;;;;;;5063504;28;1408;-47
2021/11/09 12:30:45;;;;;;;;;;;;;;;;;;5069947;28;836;-47
2021/11/09 12:33:15;;;;;;;;;;;;;;;;;;5069651;28;1910;-46
2021/11/09 12:35:41;;;;;;;;;;;;;;;;;;5050641;28;1615;-46
2021/11/09 12:38:12;;;;;;;;;;;;;;;;;;5062650;28;1132;-47
2021/11/09 12:40:37;;;;;;;;;;;;;;;;;;5069598;28;831;-47
2021/11/09 12:43:02;;;;;;;;;;;;;;;;;;5057995;28;1619;-47
2021/11/09 12:45:28;;;;;;;;;;;;;;;;;;5048527;28;1219;-47
2021/11/09 12:47:57;;;;;;;;;;;;;;;;;;5063809;28;1141;-47
2021/11/09 12:50:22;;;;;;;;;;;;;;;;;;5049671;28;1583;-46
2021/11/09 12:52:52;;;;;;;;;;;;;;;;;;5048112;28;1965;-46
2021/11/09 12:55:17;;;;;;;;;;;;;;;;;;5047060;28;1267;-46
2021/11/09 12:57:42;;;;;;;;;;;;;;;;;;5060806;28;1524;-46
2021/11/09 13:00:11;;;;;;;;;;;;;;;;;;5066762;28;1141;-48
2021/11/09 13:02:42;;;;;;;;;;;;;;;;;;5069199;28;1023;-46
2021/11/09 13:05:12;;;;;;;;;;;;;;;;;;5083405;22;1874;-49
2021/11/09 13:07:39;;;;;;;;;;;;;;;;;;5059223;28;1429;-51
2021/11/09 13:10:22;;;;;;;;;;;;;;;;;;5067585;28;1128;-52
2021/11/09 13:12:50;;;;;;;;;;;;;;;;;;5067860;28;1914;-47
2021/11/09 13:15:16;;;;;;;;;;;;;;;;;;5062946;28;1356;-52
2021/11/09 13:17:50;;;;;;;;;;;;;;;;;;5052076;28;1619;-51
2021/11/09 13:20:18;;;;;;;;;;;;;;;;;;5054081;28;1459;-51
2021/11/09 13:22:54;;;;;;;;;;;;;;;;;;5058083;28;1015;-51
2021/11/09 13:25:20;;;;;;;;;;;;;;;;;;5057392;28;1298;-50
2021/11/09 13:27:46;;;;;;;;;;;;;;;;;;5039985;28;1259;-51
2021/11/09 13:30:12;;;;;;;;;;;;;;;;;;5058792;28;1483;-50
2021/11/09 13:32:37;;;;;;;;;;;;;;;;;;5062670;28;1965;-51
2021/11/09 13:35:03;;;;;;;;;;;;;;;;;;5060642;28;1420;-53
2021/11/09 13:37:37;;;;;;;;;;;;;;;;;;5062477;28;1124;-51
2021/11/09 13:40:03;;;;;;;;;;;;;;;;;;5059525;28;1148;-51
2021/11/09 13:42:28;;;;;;;;;;;;;;;;;;5061579;28;1503;-50
2021/11/09 13:44:54;;;;;;;;;;;;;;;;;;5061620;28;1291;-51
2021/11/09 13:47:32;;;;;;;;;;;;;;;;;;5062206;28;1172;-51
2021/11/09 13:50:11;;;;;;;;;;;;;;;;;;5060452;28;1451;-51
2021/11/09 13:52:43;;;;;;;;;;;;;;;;;;5060196;28;1894;-52
2021/11/09 13:55:08;;;;;;;;;;;;;;;;;;5059695;28;1232;-51
2021/11/09 13:57:33;;;;;;;;;;;;;;;;;;5058949;28;1423;-51
2021/11/09 14:00:16;;;;;;;;;;;;;;;;;;5060412;28;1172;-51
2021/11/09 14:02:45;;;;;;;;;;;;;;;;;;5059756;28;1054;-51
2021/11/09 14:05:33;;;;;;;;;;;;;;;;;;5058732;28;1388;-52
2021/11/09 14:08:42;;;;;;;;;;;;;;;;;;5062160;28;1664;-51
2021/11/09 14:11:07;;;;;;;;;;;;;;;;;;5051541;28;1463;-47
2021/11/09 14:13:55;;;;;;;;;;;;;;;;;;5047076;28;1969;-52
2021/11/09 14:19:04;;;;;;;;;;;;;;;;;;5059357;28;1550;-51
2021/11/09 14:21:33;;;;;;;;;;;;;;;;;;5061057;28;1144;-52
2021/11/09 14:24:08;;;;;;;;;;;;;;;;;;5061805;28;1141;-51
2021/11/09 14:26:33;;;;;;;;;;;;;;;;;;5060990;28;1326;-53
2021/11/09 14:28:58;;;;;;;;;;;;;;;;;;5059890;28;1337;-53
2021/11/09 14:31:26;;;;;;;;;;;;;;;;;;5060952;28;1209;-53
2021/11/09 14:33:52;;;;;;;;;;;;;;;;;;5057887;28;1961;-55
2021/11/09 14:36:22;;;;;;;;;;;;;;;;;;5060759;28;1278;-53
2021/11/09 14:38:51;;;;;;;;;;;;;;;;;;5060688;28;1105;-53
2021/11/09 14:41:24;;;;;;;;;;;;;;;;;;5059888;28;1167;-54
2021/11/09 14:44:02;;;;;;;;;;;;;;;;;;5060415;28;1392;-54
2021/11/09 14:46:29;;;;;;;;;;;;;;;;;;5057430;28;1295;-53
2021/11/09 14:49:04;;;;;;;;;;;;;;;;;;5040054;28;1472;-54
2021/11/09 14:51:31;;;;;;;;;;;;;;;;;;5059794;28;1140;-55
2021/11/09 14:54:00;;;;;;;;;;;;;;;;;;5062175;28;1965;-53
2021/11/09 14:56:33;;;;;;;;;;;;;;;;;;5059089;28;1396;-54
2021/11/09 14:58:59;;;;;;;;;;;;;;;;;;5042034;28;1054;-54
2021/11/09 15:01:30;;;;;;;;;;;;;;;;;;5059959;28;1070;-54
2021/11/09 15:04:14;;;;;;;;;;;;;;;;;;5059652;28;1510;-52
2021/11/09 15:06:55;;;;;;;;;;;;;;;;;;5059987;28;1156;-50
2021/11/09 15:12:16;;;;;;;;;;;;;;;;;;5056420;28;1976;-51
2021/11/09 15:28:14;;;;;;;;;;;;;;;;;;5058430;28;1383;-51
2021/11/09 15:33:17;;;;;;;;;;;;;;;;;;5058437;28;1971;-51
2021/11/09 15:36:05;;;;;;;;;;;;;;;;;;5055067;28;1540;-51
2021/11/09 15:38:28;;;;;;;;;;;;;;;;;;5058760;28;1795;-49
2021/11/09 15:40:53;;;;;;;;;;;;;;;;;;5057412;28;981;-51
2021/11/09 15:43:18;;;;;;;;;;;;;;;;;;5061034;28;1188;-52
2021/11/09 15:45:43;;;;;;;;;;;;;;;;;;5058830;28;1514;-51
2021/11/09 15:48:10;;;;;;;;;;;;;;;;;;5056933;28;1443;-50
2021/11/09 15:50:35;;;;;;;;;;;;;;;;;;5058092;28;1425;-52
2021/11/09 15:53:00;;;;;;;;;;;;;;;;;;5057384;28;1902;-51
2021/11/09 15:55:26;;;;;;;;;;;;;;;;;;5058788;28;1274;-52
2021/11/09 15:57:51;;;;;;;;;;;;;;;;;;5057491;28;1345;-50
2021/11/09 16:00:16;;;;;;;;;;;;;;;;;;5060151;28;1104;-51
2021/11/09 16:02:44;;;;;;;;;;;;;;;;;;5059485;28;1120;-50
2021/11/09 16:05:09;;;;;;;;;;;;;;;;;;5057210;28;1420;-51
2021/11/09 16:07:35;;;;;;;;;;;;;;;;;;5058576;28;1318;-53
2021/11/09 16:10:00;;;;;;;;;;;;;;;;;;5058444;28;1077;-51
2021/11/09 16:12:26;;;;;;;;;;;;;;;;;;5057331;28;1918;-51
2021/11/09 16:14:51;;;;;;;;;;;;;;;;;;5056871;28;1402;-51
2021/11/09 16:17:17;;;;;;;;;;;;;;;;;;5059595;28;1104;-51
2021/11/09 16:19:42;;;;;;;;;;;;;;;;;;5057320;28;1412;-51
2021/11/09 16:22:11;;;;;;;;;;;;;;;;;;5058466;28;1092;-51
2021/11/09 16:24:36;;;;;;;;;;;;;;;;;;5056681;28;1294;-51
2021/11/09 16:27:01;;;;;;;;;;;;;;;;;;5059955;28;1092;-51
2021/11/09 16:29:49;;;;;;;;;;;;;;;;;;5057021;28;1440;-51
2021/11/09 16:32:15;;;;;;;;;;;;;;;;;;5059302;28;1902;-50
2021/11/09 16:34:43;;;;;;;;;;;;;;;;;;5056724;28;1377;-51
2021/11/09 16:37:08;;;;;;;;;;;;;;;;;;5058336;28;1124;-52
2021/11/09 16:39:48;;;;;;;;;;;;;;;;;;5058300;28;1717;-52
2021/11/09 16:42:13;;;;;;;;;;;;;;;;;;5055577;28;997;-51
2021/11/09 16:44:40;;;;;;;;;;;;;;;;;;5058907;28;1284;-51
2021/11/09 16:47:05;;;;;;;;;;;;;;;;;;5058761;28;1116;-51
2021/11/09 16:52:14;;;;;;;;;;;;;;;;;;5057635;28;1956;-51
2021/11/09 18:20:49;;;;;;;;;;;;;;;;;;5054945;28;1536;-51
2021/11/09 18:23:14;;;;;;;;;;;;;;;;;;5058425;28;1366;-51
2021/11/09 18:25:40;;;;;;;;;;;;;;;;;;5061127;28;1286;-50
2021/11/09 18:28:07;;;;;;;;;;;;;;;;;;5058847;28;1144;-51
2021/11/09 18:30:33;;;;;;;;;;;;;;;;;;5060563;28;1247;-50
2021/11/09 18:33:00;;;;;;;;;;;;;;;;;;5058959;28;1914;-50
2021/11/09 18:35:25;;;;;;;;;;;;;;;;;;5057330;28;1392;-49
2021/11/09 18:37:51;;;;;;;;;;;;;;;;;;5055772;28;1356;-51
2021/11/09 18:40:17;;;;;;;;;;;;;;;;;;5058630;28;1467;-50
2021/11/09 18:42:42;;;;;;;;;;;;;;;;;;5058664;28;993;-50
2021/11/09 18:45:08;;;;;;;;;;;;;;;;;;5059941;28;1368;-51
2021/11/09 18:47:34;;;;;;;;;;;;;;;;;;5055267;28;1312;-51
2021/11/09 18:49:59;;;;;;;;;;;;;;;;;;5057614;28;1409;-51
2021/11/09 18:52:24;;;;;;;;;;;;;;;;;;5059220;28;1922;-51
2021/11/09 18:54:54;;;;;;;;;;;;;;;;;;5060306;28;1325;-51
2021/11/09 18:57:19;;;;;;;;;;;;;;;;;;5058698;28;1325;-53
2021/11/09 18:59:44;;;;;;;;;;;;;;;;;;5059962;28;1026;-51
2021/11/09 19:02:10;;;;;;;;;;;;;;;;;;5059888;28;1214;-52
2021/11/09 19:07:06;;;;;;;;;;;;;;;;;;5099908;23;2101;-46
2021/11/09 19:09:31;;;;;;;;;;;;;;;;;;5078844;28;1073;-47
2021/11/09 19:11:56;;;;;;;;;;;;;;;;;;5078611;28;1120;-47
2021/11/09 19:14:22;;;;;;;;;;;;;;;;;;5080966;28;2024;-46
2021/11/09 19:16:49;;;;;;;;;;;;;;;;;;5080091;28;1363;-48
2021/11/09 19:19:15;;;;;;;;;;;;;;;;;;5077013;28;1316;-46
2021/11/09 19:21:40;;;;;;;;;;;;;;;;;;5080228;28;1096;-47
2021/11/09 19:24:05;;;;;;;;;;;;;;;;;;5080229;28;1182;-47
2021/11/09 19:26:30;;;;;;;;;;;;;;;;;;5077744;28;1399;-47
2021/11/09 19:28:57;;;;;;;;;;;;;;;;;;5078171;28;1392;-47
2021/11/09 19:31:22;;;;;;;;;;;;;;;;;;5079366;28;1231;-46
2021/11/09 19:33:48;;;;;;;;;;;;;;;;;;5077760;28;1905;-48
2021/11/09 19:36:14;;;;;;;;;;;;;;;;;;5079483;28;1343;-46
2021/11/09 19:38:39;;;;;;;;;;;;;;;;;;5076832;28;1386;-46
2021/11/09 19:41:04;;;;;;;;;;;;;;;;;;5079676;28;1115;-48
2021/11/09 19:43:29;;;;;;;;;;;;;;;;;;5079728;28;1132;-47
2021/11/09 19:45:55;;;;;;;;;;;;;;;;;;5079569;28;1354;-48
2021/11/09 19:48:21;;;;;;;;;;;;;;;;;;5077540;28;1455;-48
2021/11/09 19:50:49;;;;;;;;;;;;;;;;;;5078410;28;1386;-46
2021/11/09 19:53:17;;;;;;;;;;;;;;;;;;5074841;28;1914;-47
2021/11/09 19:55:42;;;;;;;;;;;;;;;;;;5074389;28;1378;-48
2021/11/09 19:58:10;;;;;;;;;;;;;;;;;;5066207;28;1380;-49
2021/11/09 20:00:35;;;;;;;;;;;;;;;;;;5064794;28;1159;-48
2021/11/09 20:03:02;;;;;;;;;;;;;;;;;;5070214;28;1136;-47
2021/11/09 20:05:29;;;;;;;;;;;;;;;;;;5071513;28;1479;-46
2021/11/09 20:07:54;;;;;;;;;;;;;;;;;;5073252;28;1187;-48
2021/11/09 20:10:19;;;;;;;;;;;;;;;;;;5075852;28;1088;-47
2021/11/09 20:12:46;;;;;;;;;;;;;;;;;;5070027;28;1901;-48
2021/11/09 20:15:46;;;;;;;;;;;;;;;;;;5055826;28;1293;-46
2021/11/09 20:18:03;;;;;;;;;;;;;;;;;;5068924;28;1391;-47
2021/11/09 20:20:29;;;;;;;;;;;;;;;;;;5069385;28;1450;-47
2021/11/09 20:22:54;;;;;;;;;;;;;;;;;;5070375;28;1285;-47
2021/11/09 20:25:19;;;;;;;;;;;;;;;;;;5074625;28;1297;-47
2021/11/09 20:27:46;;;;;;;;;;;;;;;;;;5076902;28;1422;-47
2021/11/09 20:30:12;;;;;;;;;;;;;;;;;;5073741;28;1159;-46
2021/11/09 20:32:38;;;;;;;;;;;;;;;;;;5073896;28;1972;-46
2021/11/09 20:35:03;;;;;;;;;;;;;;;;;;5073255;28;1572;-46
2021/11/09 20:37:28;;;;;;;;;;;;;;;;;;5077526;28;1069;-46
2021/11/09 20:39:54;;;;;;;;;;;;;;;;;;5073261;28;1124;-47
2021/11/09 20:42:20;;;;;;;;;;;;;;;;;;5072745;28;1395;-49
2021/11/09 20:44:45;;;;;;;;;;;;;;;;;;5074473;28;1370;-47
2021/11/09 20:47:10;;;;;;;;;;;;;;;;;;5076980;28;1251;-46
2021/11/09 20:49:35;;;;;;;;;;;;;;;;;;5067687;28;1463;-48
2021/11/09 20:52:02;;;;;;;;;;;;;;;;;;5068917;28;1372;-48
2021/11/09 20:54:28;;;;;;;;;;;;;;;;;;5071961;28;1357;-49
2021/11/09 20:56:53;;;;;;;;;;;;;;;;;;5073717;28;1468;-47
2021/11/09 20:59:18;;;;;;;;;;;;;;;;;;5077001;28;1119;-47
2021/11/09 21:01:44;;;;;;;;;;;;;;;;;;5074568;28;1546;-48
2021/11/09 21:04:09;;;;;;;;;;;;;;;;;;5070896;28;1408;-47
2021/11/09 21:06:34;;;;;;;;;;;;;;;;;;5074555;28;1297;-48
2021/11/09 21:09:01;;;;;;;;;;;;;;;;;;5076490;28;1163;-47
2021/11/09 21:11:26;;;;;;;;;;;;;;;;;;5073516;28;1364;-49
2021/11/09 21:19:03;;;;;;;;;;;;;;;;;;5071481;28;1423;-47
2021/11/09 21:21:28;;;;;;;;;;;;;;;;;;5075041;28;2090;-47
2021/11/09 21:23:54;;;;;;;;;;;;;;;;;;5073049;28;1257;-46